sensor_id;sensor_type;location;lat;lon;timestamp;P1;durP1;ratioP1;P2;durP2;ratioP2
71973;SDS011;59840;52.122;5.404;2023-03-01T00:01:36;4.73;;;3.47;;
71973;SDS011;59840;52.122;5.404;2023-03-01T00:04:03;4.55;;;3.13;;
71973;SDS011;59840;52.122;5.404;2023-03-01T00:06:29;4.88;;;3.33;;
71973;SDS011;59840;52.122;5.404;2023-03-01T00:08:56;5.70;;;3.38;;
71973;SDS011;59840;52.122;5.404;2023-03-01T00:11:24;4.95;;;3.50;;
71973;SDS011;59840;52.122;5.404;2023-03-01T00:13:54;4.07;;;3.17;;
71973;SDS011;59840;52.122;5.404;2023-03-01T00:16:27;3.90;;;3.17;;
71973;SDS011;59840;52.122;5.404;2023-03-01T00:18:56;7.15;;;3.97;;
71973;SDS011;59840;52.122;5.404;2023-03-01T00:21:24;6.85;;;3.35;;
71973;SDS011;59840;52.122;5.404;2023-03-01T00:23:51;4.10;;;3.30;;
71973;SDS011;59840;52.122;5.404;2023-03-01T00:26:19;5.80;;;3.47;;
71973;SDS011;59840;52.122;5.404;2023-03-01T00:28:47;5.30;;;2.83;;
71973;SDS011;59840;52.122;5.404;2023-03-01T00:31:15;4.72;;;3.53;;
71973;SDS011;59840;52.122;5.404;2023-03-01T00:33:43;7.18;;;3.45;;
71973;SDS011;59840;52.122;5.404;2023-03-01T00:36:11;4.80;;;3.28;;
71973;SDS011;59840;52.122;5.404;2023-03-01T00:38:40;5.30;;;3.40;;
71973;SDS011;59840;52.122;5.404;2023-03-01T00:41:10;4.60;;;3.25;;
71973;SDS011;59840;52.122;5.404;2023-03-01T00:43:38;5.80;;;3.55;;
71973;SDS011;59840;52.122;5.404;2023-03-01T00:46:06;6.25;;;3.83;;
71973;SDS011;59840;52.122;5.404;2023-03-01T00:48:37;4.78;;;2.97;;
71973;SDS011;59840;52.122;5.404;2023-03-01T00:51:05;6.40;;;3.80;;
71973;SDS011;59840;52.122;5.404;2023-03-01T00:53:32;7.95;;;3.67;;
71973;SDS011;59840;52.122;5.404;2023-03-01T00:55:59;4.47;;;3.13;;
71973;SDS011;59840;52.122;5.404;2023-03-01T00:58:26;5.63;;;3.40;;
71973;SDS011;59840;52.122;5.404;2023-03-01T01:00:52;4.38;;;3.30;;
71973;SDS011;59840;52.122;5.404;2023-03-01T01:03:19;6.03;;;3.67;;
71973;SDS011;59840;52.122;5.404;2023-03-01T01:05:46;6.30;;;4.03;;
71973;SDS011;59840;52.122;5.404;2023-03-01T01:08:12;7.00;;;3.28;;
71973;SDS011;59840;52.122;5.404;2023-03-01T01:10:39;6.28;;;3.55;;
71973;SDS011;59840;52.122;5.404;2023-03-01T01:13:05;6.10;;;3.67;;
71973;SDS011;59840;52.122;5.404;2023-03-01T01:15:35;5.07;;;3.20;;
71973;SDS011;59840;52.122;5.404;2023-03-01T01:18:02;7.30;;;3.35;;
71973;SDS011;59840;52.122;5.404;2023-03-01T01:20:29;4.95;;;3.60;;
71973;SDS011;59840;52.122;5.404;2023-03-01T01:22:55;7.38;;;4.25;;
71973;SDS011;59840;52.122;5.404;2023-03-01T01:25:22;5.47;;;3.45;;
71973;SDS011;59840;52.122;5.404;2023-03-01T01:27:51;7.33;;;3.43;;
71973;SDS011;59840;52.122;5.404;2023-03-01T01:30:17;4.95;;;3.25;;
71973;SDS011;59840;52.122;5.404;2023-03-01T01:32:44;4.07;;;3.00;;
71973;SDS011;59840;52.122;5.404;2023-03-01T01:35:11;6.03;;;3.75;;
71973;SDS011;59840;52.122;5.404;2023-03-01T01:37:37;5.75;;;3.55;;
71973;SDS011;59840;52.122;5.404;2023-03-01T01:40:04;4.33;;;3.10;;
71973;SDS011;59840;52.122;5.404;2023-03-01T01:42:31;7.55;;;3.80;;
71973;SDS011;59840;52.122;5.404;2023-03-01T01:47:59;4.93;;;3.20;;
71973;SDS011;59840;52.122;5.404;2023-03-01T01:50:30;4.07;;;3.30;;
71973;SDS011;59840;52.122;5.404;2023-03-01T01:53:05;5.40;;;2.77;;
71973;SDS011;59840;52.122;5.404;2023-03-01T01:55:36;5.30;;;3.10;;
71973;SDS011;59840;52.122;5.404;2023-03-01T01:58:06;3.92;;;2.70;;
71973;SDS011;59840;52.122;5.404;2023-03-01T02:00:35;8.65;;;3.55;;
71973;SDS011;59840;52.122;5.404;2023-03-01T02:03:04;4.22;;;2.90;;
71973;SDS011;59840;52.122;5.404;2023-03-01T02:08:33;4.18;;;3.15;;
71973;SDS011;59840;52.122;5.404;2023-03-01T02:11:03;5.20;;;3.15;;
71973;SDS011;59840;52.122;5.404;2023-03-01T02:13:31;5.82;;;3.20;;
71973;SDS011;59840;52.122;5.404;2023-03-01T02:16:02;5.93;;;3.22;;
71973;SDS011;59840;52.122;5.404;2023-03-01T02:18:30;3.83;;;3.03;;
71973;SDS011;59840;52.122;5.404;2023-03-01T02:23:39;4.90;;;3.25;;
71973;SDS011;59840;52.122;5.404;2023-03-01T02:29:24;4.75;;;3.20;;
71973;SDS011;59840;52.122;5.404;2023-03-01T02:31:52;4.17;;;3.03;;
71973;SDS011;59840;52.122;5.404;2023-03-01T02:34:23;7.70;;;3.25;;
71973;SDS011;59840;52.122;5.404;2023-03-01T02:36:55;4.78;;;3.33;;
71973;SDS011;59840;52.122;5.404;2023-03-01T02:39:27;5.53;;;2.92;;
71973;SDS011;59840;52.122;5.404;2023-03-01T02:41:57;5.25;;;3.20;;
71973;SDS011;59840;52.122;5.404;2023-03-01T02:44:26;4.50;;;2.93;;
71973;SDS011;59840;52.122;5.404;2023-03-01T02:46:53;8.50;;;3.28;;
71973;SDS011;59840;52.122;5.404;2023-03-01T02:49:24;7.00;;;3.80;;
71973;SDS011;59840;52.122;5.404;2023-03-01T02:54:40;3.38;;;2.60;;
71973;SDS011;59840;52.122;5.404;2023-03-01T02:57:12;6.87;;;3.60;;
71973;SDS011;59840;52.122;5.404;2023-03-01T02:59:39;5.57;;;3.22;;
71973;SDS011;59840;52.122;5.404;2023-03-01T03:02:21;5.38;;;3.38;;
71973;SDS011;59840;52.122;5.404;2023-03-01T03:05:10;5.45;;;2.90;;
71973;SDS011;59840;52.122;5.404;2023-03-01T03:07:41;5.72;;;3.05;;
71973;SDS011;59840;52.122;5.404;2023-03-01T03:10:11;4.80;;;2.77;;
71973;SDS011;59840;52.122;5.404;2023-03-01T03:12:40;4.35;;;2.95;;
71973;SDS011;59840;52.122;5.404;2023-03-01T03:15:08;3.13;;;2.53;;
71973;SDS011;59840;52.122;5.404;2023-03-01T03:17:38;4.53;;;2.95;;
71973;SDS011;59840;52.122;5.404;2023-03-01T03:20:08;5.28;;;3.08;;
71973;SDS011;59840;52.122;5.404;2023-03-01T03:22:38;6.20;;;3.70;;
71973;SDS011;59840;52.122;5.404;2023-03-01T03:25:06;5.97;;;3.70;;
71973;SDS011;59840;52.122;5.404;2023-03-01T03:27:40;5.32;;;3.63;;
71973;SDS011;59840;52.122;5.404;2023-03-01T03:30:09;4.63;;;3.72;;
71973;SDS011;59840;52.122;5.404;2023-03-01T03:32:38;5.13;;;3.28;;
71973;SDS011;59840;52.122;5.404;2023-03-01T03:35:06;3.83;;;2.70;;
71973;SDS011;59840;52.122;5.404;2023-03-01T03:37:38;5.10;;;3.38;;
71973;SDS011;59840;52.122;5.404;2023-03-01T03:40:24;4.50;;;3.10;;
71973;SDS011;59840;52.122;5.404;2023-03-01T03:42:51;6.40;;;3.10;;
71973;SDS011;59840;52.122;5.404;2023-03-01T03:45:18;5.70;;;3.00;;
71973;SDS011;59840;52.122;5.404;2023-03-01T03:47:45;6.43;;;3.27;;
71973;SDS011;59840;52.122;5.404;2023-03-01T03:50:13;4.50;;;3.38;;
71973;SDS011;59840;52.122;5.404;2023-03-01T03:52:41;5.18;;;3.13;;
71973;SDS011;59840;52.122;5.404;2023-03-01T03:55:09;5.47;;;3.35;;
71973;SDS011;59840;52.122;5.404;2023-03-01T03:57:37;5.18;;;2.67;;
71973;SDS011;59840;52.122;5.404;2023-03-01T04:00:08;4.73;;;3.20;;
71973;SDS011;59840;52.122;5.404;2023-03-01T04:02:40;4.90;;;3.15;;
71973;SDS011;59840;52.122;5.404;2023-03-01T04:05:10;6.57;;;3.65;;
71973;SDS011;59840;52.122;5.404;2023-03-01T04:07:38;5.45;;;3.28;;
71973;SDS011;59840;52.122;5.404;2023-03-01T04:10:05;6.05;;;3.42;;
71973;SDS011;59840;52.122;5.404;2023-03-01T04:12:34;6.23;;;3.60;;
71973;SDS011;59840;52.122;5.404;2023-03-01T04:15:05;7.38;;;3.50;;
71973;SDS011;59840;52.122;5.404;2023-03-01T04:17:42;3.58;;;2.60;;
71973;SDS011;59840;52.122;5.404;2023-03-01T04:20:11;5.63;;;3.28;;
71973;SDS011;59840;52.122;5.404;2023-03-01T04:23:04;4.85;;;3.28;;
71973;SDS011;59840;52.122;5.404;2023-03-01T04:25:58;5.10;;;3.33;;
71973;SDS011;59840;52.122;5.404;2023-03-01T04:28:35;5.72;;;3.53;;
71973;SDS011;59840;52.122;5.404;2023-03-01T04:31:05;4.05;;;3.08;;
71973;SDS011;59840;52.122;5.404;2023-03-01T04:33:40;5.38;;;3.60;;
71973;SDS011;59840;52.122;5.404;2023-03-01T04:36:12;6.75;;;3.50;;
71973;SDS011;59840;52.122;5.404;2023-03-01T04:38:39;8.13;;;3.17;;
71973;SDS011;59840;52.122;5.404;2023-03-01T04:41:08;6.97;;;3.72;;
71973;SDS011;59840;52.122;5.404;2023-03-01T04:43:36;5.78;;;3.40;;
71973;SDS011;59840;52.122;5.404;2023-03-01T04:46:04;5.10;;;3.47;;
71973;SDS011;59840;52.122;5.404;2023-03-01T04:48:35;9.68;;;3.67;;
71973;SDS011;59840;52.122;5.404;2023-03-01T04:51:03;4.47;;;2.93;;
71973;SDS011;59840;52.122;5.404;2023-03-01T04:53:30;5.35;;;3.13;;
71973;SDS011;59840;52.122;5.404;2023-03-01T04:55:57;6.63;;;3.40;;
71973;SDS011;59840;52.122;5.404;2023-03-01T04:58:23;5.00;;;3.20;;
71973;SDS011;59840;52.122;5.404;2023-03-01T05:00:51;5.38;;;3.42;;
71973;SDS011;59840;52.122;5.404;2023-03-01T05:03:19;7.37;;;3.53;;
71973;SDS011;59840;52.122;5.404;2023-03-01T05:05:47;5.40;;;3.55;;
71973;SDS011;59840;52.122;5.404;2023-03-01T05:08:15;6.32;;;3.72;;
71973;SDS011;59840;52.122;5.404;2023-03-01T05:10:46;5.72;;;3.72;;
71973;SDS011;59840;52.122;5.404;2023-03-01T05:13:15;6.15;;;4.13;;
71973;SDS011;59840;52.122;5.404;2023-03-01T05:15:54;8.50;;;3.47;;
71973;SDS011;59840;52.122;5.404;2023-03-01T05:18:28;7.80;;;4.28;;
71973;SDS011;59840;52.122;5.404;2023-03-01T05:21:01;5.80;;;3.97;;
71973;SDS011;59840;52.122;5.404;2023-03-01T05:23:31;7.25;;;4.18;;
71973;SDS011;59840;52.122;5.404;2023-03-01T05:25:59;5.97;;;4.15;;
71973;SDS011;59840;52.122;5.404;2023-03-01T05:28:26;5.43;;;3.57;;
71973;SDS011;59840;52.122;5.404;2023-03-01T05:30:54;7.78;;;4.38;;
71973;SDS011;59840;52.122;5.404;2023-03-01T05:33:22;6.78;;;3.97;;
71973;SDS011;59840;52.122;5.404;2023-03-01T05:35:49;8.32;;;4.30;;
71973;SDS011;59840;52.122;5.404;2023-03-01T05:38:16;6.88;;;4.25;;
71973;SDS011;59840;52.122;5.404;2023-03-01T05:40:44;8.87;;;4.03;;
71973;SDS011;59840;52.122;5.404;2023-03-01T05:43:13;6.15;;;4.10;;
71973;SDS011;59840;52.122;5.404;2023-03-01T05:45:41;5.82;;;4.05;;
71973;SDS011;59840;52.122;5.404;2023-03-01T05:48:09;5.47;;;3.72;;
71973;SDS011;59840;52.122;5.404;2023-03-01T05:50:37;9.07;;;4.07;;
71973;SDS011;59840;52.122;5.404;2023-03-01T05:55:38;6.05;;;3.83;;
71973;SDS011;59840;52.122;5.404;2023-03-01T05:58:06;8.10;;;4.30;;
71973;SDS011;59840;52.122;5.404;2023-03-01T06:00:35;7.15;;;3.33;;
71973;SDS011;59840;52.122;5.404;2023-03-01T06:03:02;6.38;;;3.88;;
71973;SDS011;59840;52.122;5.404;2023-03-01T06:05:29;6.70;;;3.83;;
71973;SDS011;59840;52.122;5.404;2023-03-01T06:07:58;7.05;;;4.30;;
71973;SDS011;59840;52.122;5.404;2023-03-01T06:10:26;7.88;;;3.83;;
71973;SDS011;59840;52.122;5.404;2023-03-01T06:12:53;7.82;;;4.13;;
71973;SDS011;59840;52.122;5.404;2023-03-01T06:15:21;6.68;;;3.50;;
71973;SDS011;59840;52.122;5.404;2023-03-01T06:17:48;6.27;;;3.77;;
71973;SDS011;59840;52.122;5.404;2023-03-01T06:20:19;6.85;;;4.10;;
71973;SDS011;59840;52.122;5.404;2023-03-01T06:22:47;6.85;;;3.63;;
71973;SDS011;59840;52.122;5.404;2023-03-01T06:25:16;4.93;;;3.88;;
71973;SDS011;59840;52.122;5.404;2023-03-01T06:27:46;4.45;;;3.47;;
71973;SDS011;59840;52.122;5.404;2023-03-01T06:30:15;6.40;;;3.37;;
71973;SDS011;59840;52.122;5.404;2023-03-01T06:32:43;5.00;;;3.22;;
71973;SDS011;59840;52.122;5.404;2023-03-01T06:35:11;7.00;;;4.05;;
71973;SDS011;59840;52.122;5.404;2023-03-01T06:37:39;6.43;;;3.25;;
71973;SDS011;59840;52.122;5.404;2023-03-01T06:40:06;8.77;;;4.15;;
71973;SDS011;59840;52.122;5.404;2023-03-01T06:42:35;6.57;;;3.53;;
71973;SDS011;59840;52.122;5.404;2023-03-01T06:45:02;6.63;;;3.85;;
71973;SDS011;59840;52.122;5.404;2023-03-01T06:47:30;7.65;;;3.95;;
71973;SDS011;59840;52.122;5.404;2023-03-01T06:49:59;7.07;;;4.40;;
71973;SDS011;59840;52.122;5.404;2023-03-01T06:52:26;9.48;;;4.43;;
71973;SDS011;59840;52.122;5.404;2023-03-01T06:54:53;7.07;;;4.30;;
71973;SDS011;59840;52.122;5.404;2023-03-01T06:57:20;6.05;;;4.70;;
71973;SDS011;59840;52.122;5.404;2023-03-01T06:59:47;10.05;;;3.80;;
71973;SDS011;59840;52.122;5.404;2023-03-01T07:02:14;5.63;;;3.58;;
71973;SDS011;59840;52.122;5.404;2023-03-01T07:04:41;5.72;;;3.95;;
71973;SDS011;59840;52.122;5.404;2023-03-01T07:07:08;4.50;;;3.70;;
71973;SDS011;59840;52.122;5.404;2023-03-01T07:09:35;7.90;;;4.63;;
71973;SDS011;59840;52.122;5.404;2023-03-01T07:12:02;5.18;;;3.53;;
71973;SDS011;59840;52.122;5.404;2023-03-01T07:14:29;5.65;;;4.03;;
71973;SDS011;59840;52.122;5.404;2023-03-01T07:16:56;7.18;;;3.92;;
71973;SDS011;59840;52.122;5.404;2023-03-01T07:19:22;7.10;;;4.10;;
71973;SDS011;59840;52.122;5.404;2023-03-01T07:21:49;6.25;;;3.97;;
71973;SDS011;59840;52.122;5.404;2023-03-01T07:24:16;6.70;;;4.05;;
71973;SDS011;59840;52.122;5.404;2023-03-01T07:26:42;7.75;;;4.13;;
71973;SDS011;59840;52.122;5.404;2023-03-01T07:29:10;6.57;;;3.97;;
71973;SDS011;59840;52.122;5.404;2023-03-01T07:31:36;6.27;;;4.03;;
71973;SDS011;59840;52.122;5.404;2023-03-01T07:34:03;6.13;;;3.75;;
71973;SDS011;59840;52.122;5.404;2023-03-01T07:36:30;7.88;;;4.68;;
71973;SDS011;59840;52.122;5.404;2023-03-01T07:38:57;7.68;;;4.93;;
71973;SDS011;59840;52.122;5.404;2023-03-01T07:41:24;7.32;;;4.70;;
71973;SDS011;59840;52.122;5.404;2023-03-01T07:43:51;8.23;;;4.87;;
71973;SDS011;59840;52.122;5.404;2023-03-01T07:46:17;6.82;;;4.32;;
71973;SDS011;59840;52.122;5.404;2023-03-01T07:48:45;8.20;;;5.07;;
71973;SDS011;59840;52.122;5.404;2023-03-01T07:51:12;9.80;;;5.75;;
71973;SDS011;59840;52.122;5.404;2023-03-01T07:53:39;7.88;;;5.35;;
71973;SDS011;59840;52.122;5.404;2023-03-01T07:56:07;9.77;;;5.60;;
71973;SDS011;59840;52.122;5.404;2023-03-01T07:58:36;12.15;;;5.93;;
71973;SDS011;59840;52.122;5.404;2023-03-01T08:01:07;12.85;;;6.20;;
71973;SDS011;59840;52.122;5.404;2023-03-01T08:03:37;9.18;;;5.57;;
71973;SDS011;59840;52.122;5.404;2023-03-01T08:06:05;12.60;;;6.10;;
71973;SDS011;59840;52.122;5.404;2023-03-01T08:08:34;10.73;;;5.90;;
71973;SDS011;59840;52.122;5.404;2023-03-01T08:11:02;11.32;;;6.50;;
71973;SDS011;59840;52.122;5.404;2023-03-01T08:13:30;9.15;;;5.55;;
71973;SDS011;59840;52.122;5.404;2023-03-01T08:16:01;11.27;;;6.05;;
71973;SDS011;59840;52.122;5.404;2023-03-01T08:18:32;10.52;;;6.32;;
71973;SDS011;59840;52.122;5.404;2023-03-01T08:21:03;10.47;;;5.87;;
71973;SDS011;59840;52.122;5.404;2023-03-01T08:23:34;10.95;;;6.28;;
71973;SDS011;59840;52.122;5.404;2023-03-01T08:26:05;10.63;;;6.18;;
71973;SDS011;59840;52.122;5.404;2023-03-01T08:28:36;15.55;;;6.28;;
71973;SDS011;59840;52.122;5.404;2023-03-01T08:31:03;11.38;;;6.60;;
71973;SDS011;59840;52.122;5.404;2023-03-01T08:33:29;8.50;;;5.60;;
71973;SDS011;59840;52.122;5.404;2023-03-01T08:36:03;10.77;;;5.30;;
71973;SDS011;59840;52.122;5.404;2023-03-01T08:38:30;6.15;;;3.92;;
71973;SDS011;59840;52.122;5.404;2023-03-01T08:40:59;9.25;;;4.55;;
71973;SDS011;59840;52.122;5.404;2023-03-01T08:43:27;6.05;;;3.92;;
71973;SDS011;59840;52.122;5.404;2023-03-01T08:45:53;7.37;;;4.07;;
71973;SDS011;59840;52.122;5.404;2023-03-01T08:48:20;8.30;;;4.53;;
71973;SDS011;59840;52.122;5.404;2023-03-01T08:50:46;7.32;;;3.28;;
71973;SDS011;59840;52.122;5.404;2023-03-01T08:53:13;6.10;;;3.92;;
71973;SDS011;59840;52.122;5.404;2023-03-01T08:55:39;6.22;;;3.63;;
71973;SDS011;59840;52.122;5.404;2023-03-01T08:58:06;4.83;;;3.60;;
71973;SDS011;59840;52.122;5.404;2023-03-01T09:00:32;5.20;;;3.90;;
71973;SDS011;59840;52.122;5.404;2023-03-01T09:03:01;6.00;;;3.88;;
71973;SDS011;59840;52.122;5.404;2023-03-01T09:05:28;5.70;;;3.38;;
71973;SDS011;59840;52.122;5.404;2023-03-01T09:07:58;7.18;;;3.85;;
71973;SDS011;59840;52.122;5.404;2023-03-01T09:10:25;4.57;;;2.73;;
71973;SDS011;59840;52.122;5.404;2023-03-01T09:12:52;5.15;;;3.20;;
71973;SDS011;59840;52.122;5.404;2023-03-01T09:15:18;5.50;;;3.80;;
71973;SDS011;59840;52.122;5.404;2023-03-01T09:17:45;5.28;;;3.08;;
71973;SDS011;59840;52.122;5.404;2023-03-01T09:20:13;5.05;;;2.80;;
71973;SDS011;59840;52.122;5.404;2023-03-01T09:22:40;7.50;;;2.80;;
71973;SDS011;59840;52.122;5.404;2023-03-01T09:25:06;6.10;;;3.80;;
71973;SDS011;59840;52.122;5.404;2023-03-01T09:27:33;4.20;;;2.85;;
71973;SDS011;59840;52.122;5.404;2023-03-01T09:30:00;4.53;;;2.78;;
71973;SDS011;59840;52.122;5.404;2023-03-01T09:32:27;4.85;;;3.03;;
71973;SDS011;59840;52.122;5.404;2023-03-01T09:34:55;8.37;;;3.10;;
71973;SDS011;59840;52.122;5.404;2023-03-01T09:37:34;5.28;;;2.63;;
71973;SDS011;59840;52.122;5.404;2023-03-01T09:40:06;3.75;;;2.60;;
71973;SDS011;59840;52.122;5.404;2023-03-01T09:42:46;5.55;;;2.30;;
71973;SDS011;59840;52.122;5.404;2023-03-01T09:45:22;5.22;;;3.15;;
71973;SDS011;59840;52.122;5.404;2023-03-01T09:47:53;7.03;;;2.43;;
71973;SDS011;59840;52.122;5.404;2023-03-01T09:50:21;4.57;;;2.65;;
71973;SDS011;59840;52.122;5.404;2023-03-01T09:55:23;4.53;;;2.25;;
71973;SDS011;59840;52.122;5.404;2023-03-01T09:58:00;5.88;;;2.65;;
71973;SDS011;59840;52.122;5.404;2023-03-01T10:00:37;2.97;;;2.17;;
71973;SDS011;59840;52.122;5.404;2023-03-01T10:08:29;2.33;;;1.27;;
71973;SDS011;59840;52.122;5.404;2023-03-01T10:11:03;2.80;;;1.55;;
71973;SDS011;59840;52.122;5.404;2023-03-01T10:16:13;2.55;;;1.30;;
71973;SDS011;59840;52.122;5.404;2023-03-01T10:18:45;2.50;;;1.60;;
71973;SDS011;59840;52.122;5.404;2023-03-01T10:21:16;3.28;;;1.55;;
71973;SDS011;59840;52.122;5.404;2023-03-01T10:23:45;2.55;;;1.70;;
71973;SDS011;59840;52.122;5.404;2023-03-01T10:31:50;4.78;;;2.00;;
71973;SDS011;59840;52.122;5.404;2023-03-01T10:34:17;4.97;;;2.00;;
71973;SDS011;59840;52.122;5.404;2023-03-01T10:36:50;3.25;;;1.70;;
71973;SDS011;59840;52.122;5.404;2023-03-01T10:39:22;2.93;;;1.77;;
71973;SDS011;59840;52.122;5.404;2023-03-01T10:41:56;4.07;;;1.88;;
71973;SDS011;59840;52.122;5.404;2023-03-01T10:44:46;4.32;;;1.58;;
71973;SDS011;59840;52.122;5.404;2023-03-01T10:52:33;2.47;;;1.40;;
71973;SDS011;59840;52.122;5.404;2023-03-01T10:57:39;1.63;;;0.88;;
71973;SDS011;59840;52.122;5.404;2023-03-01T11:00:17;2.47;;;1.00;;
71973;SDS011;59840;52.122;5.404;2023-03-01T11:02:47;2.47;;;1.30;;
71973;SDS011;59840;52.122;5.404;2023-03-01T11:05:34;2.87;;;1.23;;
71973;SDS011;59840;52.122;5.404;2023-03-01T11:08:01;1.95;;;0.80;;
71973;SDS011;59840;52.122;5.404;2023-03-01T11:10:33;2.78;;;1.30;;
71973;SDS011;59840;52.122;5.404;2023-03-01T11:13:35;2.08;;;1.20;;
71973;SDS011;59840;52.122;5.404;2023-03-01T11:15:58;2.25;;;1.10;;
71973;SDS011;59840;52.122;5.404;2023-03-01T11:18:32;3.60;;;1.27;;
71973;SDS011;59840;52.122;5.404;2023-03-01T11:21:12;1.88;;;1.00;;
71973;SDS011;59840;52.122;5.404;2023-03-01T11:23:39;2.83;;;1.23;;
71973;SDS011;59840;52.122;5.404;2023-03-01T11:26:08;3.00;;;0.90;;
71973;SDS011;59840;52.122;5.404;2023-03-01T11:28:38;2.63;;;0.73;;
71973;SDS011;59840;52.122;5.404;2023-03-01T11:31:09;1.63;;;0.70;;
71973;SDS011;59840;52.122;5.404;2023-03-01T11:38:53;2.15;;;1.00;;
71973;SDS011;59840;52.122;5.404;2023-03-01T11:41:21;1.45;;;0.75;;
71973;SDS011;59840;52.122;5.404;2023-03-01T11:52:30;2.70;;;1.33;;
71973;SDS011;59840;52.122;5.404;2023-03-01T12:03:54;2.55;;;1.40;;
71973;SDS011;59840;52.122;5.404;2023-03-01T12:09:48;1.77;;;1.30;;
71973;SDS011;59840;52.122;5.404;2023-03-01T12:18:49;2.47;;;1.48;;
71973;SDS011;59840;52.122;5.404;2023-03-01T12:21:43;1.25;;;0.90;;
71973;SDS011;59840;52.122;5.404;2023-03-01T12:35:24;2.75;;;1.75;;
71973;SDS011;59840;52.122;5.404;2023-03-01T12:41:08;2.00;;;0.93;;
71973;SDS011;59840;52.122;5.404;2023-03-01T12:46:40;2.90;;;1.60;;
71973;SDS011;59840;52.122;5.404;2023-03-01T12:49:26;2.97;;;1.40;;
71973;SDS011;59840;52.122;5.404;2023-03-01T12:51:59;3.67;;;1.80;;
71973;SDS011;59840;52.122;5.404;2023-03-01T12:54:31;2.67;;;1.60;;
71973;SDS011;59840;52.122;5.404;2023-03-01T12:57:03;2.47;;;1.40;;
71973;SDS011;59840;52.122;5.404;2023-03-01T13:02:39;1.50;;;1.13;;
71973;SDS011;59840;52.122;5.404;2023-03-01T13:10:43;2.33;;;1.40;;
71973;SDS011;59840;52.122;5.404;2023-03-01T13:13:20;2.75;;;1.25;;
71973;SDS011;59840;52.122;5.404;2023-03-01T13:15:52;3.10;;;1.63;;
71973;SDS011;59840;52.122;5.404;2023-03-01T13:20:46;2.87;;;1.37;;
71973;SDS011;59840;52.122;5.404;2023-03-01T13:33:42;3.30;;;1.70;;
71973;SDS011;59840;52.122;5.404;2023-03-01T13:39:26;2.88;;;1.40;;
71973;SDS011;59840;52.122;5.404;2023-03-01T13:41:59;2.40;;;1.25;;
71973;SDS011;59840;52.122;5.404;2023-03-01T13:44:29;3.85;;;1.58;;
71973;SDS011;59840;52.122;5.404;2023-03-01T13:47:03;3.13;;;1.90;;
71973;SDS011;59840;52.122;5.404;2023-03-01T13:49:49;1.23;;;0.85;;
71973;SDS011;59840;52.122;5.404;2023-03-01T13:53:03;2.65;;;1.30;;
71973;SDS011;59840;52.122;5.404;2023-03-01T13:57:41;2.38;;;1.48;;
71973;SDS011;59840;52.122;5.404;2023-03-01T14:03:01;3.03;;;1.45;;
71973;SDS011;59840;52.122;5.404;2023-03-01T14:05:31;3.05;;;1.50;;
71973;SDS011;59840;52.122;5.404;2023-03-01T14:07:59;2.47;;;1.13;;
71973;SDS011;59840;52.122;5.404;2023-03-01T14:10:31;1.90;;;1.25;;
71973;SDS011;59840;52.122;5.404;2023-03-01T14:16:24;3.22;;;1.40;;
71973;SDS011;59840;52.122;5.404;2023-03-01T14:19:14;1.65;;;1.00;;
71973;SDS011;59840;52.122;5.404;2023-03-01T14:22:10;2.50;;;1.60;;
71973;SDS011;59840;52.122;5.404;2023-03-01T14:24:40;3.55;;;1.70;;
71973;SDS011;59840;52.122;5.404;2023-03-01T14:27:15;1.83;;;1.30;;
71973;SDS011;59840;52.122;5.404;2023-03-01T14:29:43;2.35;;;1.52;;
71973;SDS011;59840;52.122;5.404;2023-03-01T14:34:46;3.05;;;1.80;;
71973;SDS011;59840;52.122;5.404;2023-03-01T14:39:44;3.10;;;1.30;;
71973;SDS011;59840;52.122;5.404;2023-03-01T14:42:11;2.28;;;1.58;;
71973;SDS011;59840;52.122;5.404;2023-03-01T14:44:45;1.80;;;1.25;;
71973;SDS011;59840;52.122;5.404;2023-03-01T14:47:14;2.35;;;1.40;;
71973;SDS011;59840;52.122;5.404;2023-03-01T14:49:46;3.45;;;1.75;;
71973;SDS011;59840;52.122;5.404;2023-03-01T14:52:20;4.47;;;1.60;;
71973;SDS011;59840;52.122;5.404;2023-03-01T14:54:48;2.78;;;1.60;;
71973;SDS011;59840;52.122;5.404;2023-03-01T14:57:20;2.20;;;1.40;;
71973;SDS011;59840;52.122;5.404;2023-03-01T14:59:49;2.60;;;1.60;;
71973;SDS011;59840;52.122;5.404;2023-03-01T15:02:22;2.47;;;1.60;;
71973;SDS011;59840;52.122;5.404;2023-03-01T15:04:52;3.07;;;1.60;;
71973;SDS011;59840;52.122;5.404;2023-03-01T15:07:24;2.67;;;1.77;;
71973;SDS011;59840;52.122;5.404;2023-03-01T15:09:55;5.07;;;2.28;;
71973;SDS011;59840;52.122;5.404;2023-03-01T15:12:33;2.70;;;1.63;;
71973;SDS011;59840;52.122;5.404;2023-03-01T15:15:08;2.45;;;1.45;;
71973;SDS011;59840;52.122;5.404;2023-03-01T15:17:54;3.67;;;1.67;;
71973;SDS011;59840;52.122;5.404;2023-03-01T15:20:23;2.90;;;2.08;;
71973;SDS011;59840;52.122;5.404;2023-03-01T15:22:52;2.83;;;1.60;;
71973;SDS011;59840;52.122;5.404;2023-03-01T15:25:27;3.03;;;2.22;;
71973;SDS011;59840;52.122;5.404;2023-03-01T15:27:56;3.38;;;1.70;;
71973;SDS011;59840;52.122;5.404;2023-03-01T15:30:35;4.20;;;1.67;;
71973;SDS011;59840;52.122;5.404;2023-03-01T15:35:50;3.17;;;1.80;;
71973;SDS011;59840;52.122;5.404;2023-03-01T15:39:03;7.03;;;2.00;;
71973;SDS011;59840;52.122;5.404;2023-03-01T15:41:25;2.83;;;1.60;;
71973;SDS011;59840;52.122;5.404;2023-03-01T15:43:53;2.27;;;1.77;;
71973;SDS011;59840;52.122;5.404;2023-03-01T15:46:26;2.72;;;1.60;;
71973;SDS011;59840;52.122;5.404;2023-03-01T15:48:57;2.28;;;1.58;;
71973;SDS011;59840;52.122;5.404;2023-03-01T15:51:29;1.83;;;1.60;;
71973;SDS011;59840;52.122;5.404;2023-03-01T15:54:03;5.57;;;1.15;;
71973;SDS011;59840;52.122;5.404;2023-03-01T15:56:32;3.23;;;1.57;;
71973;SDS011;59840;52.122;5.404;2023-03-01T15:59:00;3.22;;;1.58;;
71973;SDS011;59840;52.122;5.404;2023-03-01T16:01:28;2.80;;;1.38;;
71973;SDS011;59840;52.122;5.404;2023-03-01T16:03:57;2.42;;;1.80;;
71973;SDS011;59840;52.122;5.404;2023-03-01T16:06:24;2.42;;;1.77;;
71973;SDS011;59840;52.122;5.404;2023-03-01T16:08:51;2.77;;;1.60;;
71973;SDS011;59840;52.122;5.404;2023-03-01T16:11:18;2.67;;;1.73;;
71973;SDS011;59840;52.122;5.404;2023-03-01T16:13:46;3.53;;;1.80;;
71973;SDS011;59840;52.122;5.404;2023-03-01T16:16:14;3.20;;;2.17;;
71973;SDS011;59840;52.122;5.404;2023-03-01T16:18:43;3.58;;;1.88;;
71973;SDS011;59840;52.122;5.404;2023-03-01T16:21:15;2.23;;;1.40;;
71973;SDS011;59840;52.122;5.404;2023-03-01T16:23:45;2.13;;;1.52;;
71973;SDS011;59840;52.122;5.404;2023-03-01T16:26:12;4.28;;;2.47;;
71973;SDS011;59840;52.122;5.404;2023-03-01T16:28:40;3.28;;;1.75;;
71973;SDS011;59840;52.122;5.404;2023-03-01T16:31:07;4.30;;;2.30;;
71973;SDS011;59840;52.122;5.404;2023-03-01T16:33:35;3.10;;;1.43;;
71973;SDS011;59840;52.122;5.404;2023-03-01T16:36:07;3.65;;;2.03;;
71973;SDS011;59840;52.122;5.404;2023-03-01T16:38:35;4.72;;;2.35;;
71973;SDS011;59840;52.122;5.404;2023-03-01T16:41:02;3.78;;;1.63;;
71973;SDS011;59840;52.122;5.404;2023-03-01T16:43:29;3.30;;;1.77;;
71973;SDS011;59840;52.122;5.404;2023-03-01T16:45:56;2.90;;;2.13;;
71973;SDS011;59840;52.122;5.404;2023-03-01T16:48:25;3.33;;;2.08;;
71973;SDS011;59840;52.122;5.404;2023-03-01T16:50:56;2.60;;;1.80;;
71973;SDS011;59840;52.122;5.404;2023-03-01T16:53:26;2.85;;;1.77;;
71973;SDS011;59840;52.122;5.404;2023-03-01T16:55:55;4.00;;;1.90;;
71973;SDS011;59840;52.122;5.404;2023-03-01T16:58:23;4.50;;;1.80;;
71973;SDS011;59840;52.122;5.404;2023-03-01T17:00:54;3.90;;;2.17;;
71973;SDS011;59840;52.122;5.404;2023-03-01T17:03:24;3.95;;;1.88;;
71973;SDS011;59840;52.122;5.404;2023-03-01T17:05:52;3.20;;;1.80;;
71973;SDS011;59840;52.122;5.404;2023-03-01T17:08:19;2.72;;;1.92;;
71973;SDS011;59840;52.122;5.404;2023-03-01T17:10:45;3.57;;;1.77;;
71973;SDS011;59840;52.122;5.404;2023-03-01T17:13:12;3.10;;;2.10;;
71973;SDS011;59840;52.122;5.404;2023-03-01T17:15:39;3.42;;;1.77;;
71973;SDS011;59840;52.122;5.404;2023-03-01T17:18:08;3.15;;;1.95;;